TimeAKDT,TemperatureF,Dew PointF,Humidity,Sea Level PressureIn,VisibilityMPH,Wind Direction,Wind SpeedMPH,Gust SpeedMPH,PrecipitationIn,Events,Conditions,WindDirDegrees,DateUTC
12:53 AM,52.0,48.9,89,29.37,5.0,ENE,13.8,-,0.09,Rain,Rain,70,2013-08-29 08:53:00
1:53 AM,52.0,48.9,89,29.35,6.0,ENE,17.3,-,0.12,Rain,Rain,60,2013-08-29 09:53:00
2:53 AM,52.0,48.9,89,29.33,3.0,NE,13.8,-,0.10,Rain,Rain,40,2013-08-29 10:53:00
3:53 AM,52.0,50.0,93,29.31,4.0,NE,19.6,-,0.17,Rain,Rain,40,2013-08-29 11:53:00
4:53 AM,52.0,50.0,93,29.29,3.0,NE,18.4,-,0.16,Rain,Heavy Rain,40,2013-08-29 12:53:00
5:53 AM,53.1,50.0,89,29.27,3.0,NE,20.7,27.6,0.19,Rain,Rain,40,2013-08-29 13:53:00
6:53 AM,53.1,50.0,89,29.27,4.0,NE,18.4,-,0.09,Rain,Light Rain,50,2013-08-29 14:53:00
7:53 AM,53.1,50.0,89,29.27,4.0,NE,20.7,-,0.06,Rain,Light Rain,40,2013-08-29 15:53:00
8:02 AM,53.6,50.0,88,29.27,2.0,NE,23.0,28.8,0.02,Rain,Light Rain,40,2013-08-29 16:02:00
8:21 AM,53.6,50.0,88,29.27,1.5,NE,20.7,-,0.03,Rain,Light Rain,40,2013-08-29 16:21:00
8:53 AM,53.1,51.1,93,29.28,1.5,NNE,21.9,31.1,0.08,Rain,Light Rain,30,2013-08-29 16:53:00
9:00 AM,53.6,51.8,94,29.27,2.0,NE,25.3,33.4,0.00,Rain,Light Rain,40,2013-08-29 17:00:00
9:35 AM,53.6,51.8,94,29.28,1.8,NE,25.3,32.2,0.04,Rain,Light Rain,40,2013-08-29 17:35:00
9:43 AM,53.6,51.8,94,29.28,2.0,NE,26.5,-,0.05,Rain,Light Rain,40,2013-08-29 17:43:00
9:53 AM,54.0,51.1,90,29.29,2.5,NNE,26.5,33.4,0.06,Rain,Light Rain,30,2013-08-29 17:53:00
10:11 AM,53.6,51.8,94,29.29,1.5,NE,21.9,-,0.02,Rain,Light Rain,40,2013-08-29 18:11:00
10:53 AM,53.1,52.0,96,29.31,1.8,NE,25.3,29.9,0.07,Rain,Light Rain,40,2013-08-29 18:53:00
11:53 AM,54.0,52.0,93,29.34,1.5,NE,24.2,-,0.08,Rain,Light Rain,40,2013-08-29 19:53:00
12:53 PM,54.0,52.0,93,29.38,1.8,NE,24.2,-,0.07,Rain,Light Rain,40,2013-08-29 20:53:00
1:53 PM,54.0,52.0,93,29.42,1.2,NE,21.9,-,0.05,Rain,Light Rain,40,2013-08-29 21:53:00
2:24 PM,53.6,51.8,94,29.44,1.0,NE,20.7,-,0.06,Rain,Light Rain,40,2013-08-29 22:24:00
2:33 PM,53.6,51.8,94,29.44,1.2,NE,21.9,-,0.07,Rain,Light Rain,40,2013-08-29 22:33:00
2:53 PM,54.0,52.0,93,29.45,1.2,NE,24.2,28.8,0.10,Rain,Light Rain,40,2013-08-29 22:53:00
3:53 PM,54.0,52.0,93,29.49,1.0,NE,24.2,-,0.09,Rain,Light Rain,40,2013-08-29 23:53:00
4:53 PM,54.0,53.1,97,29.53,1.0,NE,23.0,-,0.04,Rain,Light Rain,40,2013-08-30 00:53:00
5:53 PM,54.0,53.1,97,29.57,1.0,NNE,19.6,25.3,0.05,Rain,Light Rain,30,2013-08-30 01:53:00
6:53 PM,54.0,53.1,97,29.61,1.0,NNE,19.6,-,0.09,Rain,Light Rain,30,2013-08-30 02:53:00
7:41 PM,55.4,53.6,94,29.64,2.0,NE,23.0,-,0.05,Rain,Light Rain,40,2013-08-30 03:41:00
7:53 PM,54.0,53.1,97,29.65,2.0,NNE,19.6,27.6,0.06,Rain,Light Rain,30,2013-08-30 03:53:00
8:10 PM,53.6,53.6,100,29.66,4.0,NNE,20.7,27.6,0.01,Rain,Light Rain,30,2013-08-30 04:10:00
8:53 PM,55.9,55.0,97,29.69,4.0,NNE,18.4,29.9,0.02,Rain,Light Rain,20,2013-08-30 04:53:00
9:15 PM,55.4,55.4,100,29.70,9.0,NNE,19.6,25.3,0.01,Rain,Light Rain,20,2013-08-30 05:15:00
9:53 PM,55.9,52.0,87,29.73,4.0,North,11.5,21.9,0.01,Rain,Light Rain,360,2013-08-30 05:53:00
10:07 PM,55.4,53.6,94,29.73,8.0,North,10.4,17.3,0.01,Rain,Light Rain,10,2013-08-30 06:07:00
10:53 PM,55.9,53.1,90,29.75,3.0,North,8.1,17.3,0.02,Rain,Light Rain,10,2013-08-30 06:53:00
11:53 PM,57.0,53.1,87,29.78,10.0,North,9.2,-,0.02,Rain,Light Rain,350,2013-08-30 07:53:00